createdAt,value
2019-04-27T00:01:13.656Z,3.17
2019-04-27T00:03:49.701Z,3.03
2019-04-27T00:06:23.734Z,4.63
2019-04-27T00:08:54.103Z,3.13
2019-04-27T00:11:27.001Z,3.23
2019-04-27T00:13:56.201Z,2.50
2019-04-27T00:16:26.779Z,5.47
2019-04-27T00:19:13.170Z,2.60
2019-04-27T00:21:43.679Z,5.17
2019-04-27T00:24:13.521Z,3.43
2019-04-27T00:26:43.359Z,2.53
2019-04-27T00:29:13.720Z,3.13
2019-04-27T00:31:43.493Z,3.67
2019-04-27T00:34:13.363Z,3.33
2019-04-27T00:36:56.866Z,3.73
2019-04-27T00:39:30.064Z,2.80
2019-04-27T00:41:58.734Z,2.47
2019-04-27T00:44:27.460Z,4.70
2019-04-27T00:46:56.128Z,2.03
2019-04-27T00:49:24.816Z,2.20
2019-04-27T00:51:53.693Z,2.47
2019-04-27T00:54:23.764Z,2.93
2019-04-27T00:56:54.106Z,2.40
2019-04-27T00:59:24.388Z,2.73
2019-04-27T01:02:03.797Z,2.40
2019-04-27T01:04:36.268Z,4.20
2019-04-27T01:07:05.565Z,2.43
2019-04-27T01:09:34.624Z,2.00
2019-04-27T01:12:03.696Z,2.63
2019-04-27T01:14:34.132Z,2.50
2019-04-27T01:17:03.240Z,2.40
2019-04-27T01:19:32.100Z,2.70
2019-04-27T01:22:00.907Z,1.80
2019-04-27T01:24:30.477Z,2.00
2019-04-27T01:27:12.816Z,2.00
2019-04-27T01:29:42.328Z,2.00
2019-04-27T01:32:12.590Z,3.77
2019-04-27T01:34:41.272Z,3.83
2019-04-27T01:37:10.195Z,3.57
2019-04-27T01:39:38.898Z,2.40
2019-04-27T01:42:08.924Z,2.10
2019-04-27T01:44:39.375Z,2.10
2019-04-27T01:47:08.636Z,4.37
2019-04-27T01:49:40.004Z,2.00
2019-04-27T01:52:09.586Z,2.40
2019-04-27T01:54:40.812Z,2.37
2019-04-27T01:57:10.317Z,3.50
2019-04-27T01:59:39.591Z,3.00
2019-04-27T02:02:10.600Z,1.90
2019-04-27T02:04:53.228Z,2.47
2019-04-27T02:07:21.943Z,2.70
2019-04-27T02:09:50.632Z,1.70
2019-04-27T02:12:19.336Z,1.77
2019-04-27T02:14:49.099Z,1.90
2019-04-27T02:17:18.811Z,2.27
2019-04-27T02:19:49.422Z,1.77
2019-04-27T02:22:18.680Z,2.03
2019-04-27T02:24:49.208Z,2.20
2019-04-27T02:27:19.724Z,2.23
2019-04-27T02:30:06.416Z,2.03
2019-04-27T02:32:39.842Z,1.70
2019-04-27T02:35:10.580Z,1.60
2019-04-27T02:37:40.369Z,2.30
2019-04-27T02:40:20.336Z,1.60
2019-04-27T02:42:50.008Z,1.90
2019-04-27T02:45:22.162Z,2.10
2019-04-27T02:47:51.939Z,2.10
2019-04-27T02:50:20.907Z,2.67
2019-04-27T02:52:50.170Z,2.33
2019-04-27T02:55:19.739Z,2.17
2019-04-27T02:57:50.048Z,1.97
2019-04-27T03:00:20.546Z,2.47
2019-04-27T03:02:51.274Z,2.23
2019-04-27T03:05:22.991Z,2.00
2019-04-27T03:07:51.694Z,1.70
2019-04-27T03:10:20.697Z,2.30
2019-04-27T03:12:53.210Z,2.40
2019-04-27T03:15:40.385Z,2.27
2019-04-27T03:18:13.652Z,2.20
2019-04-27T03:20:50.458Z,1.60
2019-04-27T03:23:20.036Z,1.77
2019-04-27T03:25:50.732Z,2.20
2019-04-27T03:28:20.170Z,1.53
2019-04-27T03:30:52.217Z,1.87
2019-04-27T03:33:22.247Z,1.43
2019-04-27T03:35:52.601Z,1.73
2019-04-27T03:38:20.738Z,2.17
2019-04-27T03:40:50.730Z,1.97
2019-04-27T03:43:21.841Z,2.07
2019-04-27T03:45:52.308Z,2.23
2019-04-27T03:48:40.905Z,2.33
2019-04-27T03:51:11.434Z,3.63
2019-04-27T03:53:44.555Z,1.97
2019-04-27T03:56:14.834Z,4.73
2019-04-27T03:58:49.465Z,2.83
2019-04-27T04:01:20.273Z,2.50
2019-04-27T04:03:50.029Z,3.60
2019-04-27T04:06:19.417Z,3.57
2019-04-27T04:08:50.604Z,1.50
2019-04-27T04:11:23.240Z,2.37
2019-04-27T04:14:10.209Z,4.47
2019-04-27T04:16:40.675Z,1.60
2019-04-27T04:19:10.914Z,3.30
2019-04-27T04:21:40.218Z,1.60
2019-04-27T04:24:11.901Z,2.23
2019-04-27T04:26:40.387Z,2.37
2019-04-27T04:29:10.401Z,1.90
2019-04-27T04:31:40.568Z,2.43
2019-04-27T04:34:11.942Z,2.27
2019-04-27T04:36:42.578Z,1.80
2019-04-27T04:39:12.294Z,2.80
2019-04-27T04:41:43.569Z,1.73
2019-04-27T04:44:30.448Z,3.80
2019-04-27T04:47:03.656Z,1.90
2019-04-27T04:49:32.377Z,1.83
2019-04-27T04:52:01.269Z,2.00
2019-04-27T04:54:30.234Z,2.30
2019-04-27T04:56:59.541Z,2.60
2019-04-27T04:59:29.106Z,2.50
2019-04-27T05:02:00.269Z,4.80
2019-04-27T05:04:29.150Z,3.40
2019-04-27T05:06:59.229Z,1.53
2019-04-27T05:09:29.611Z,2.60
2019-04-27T05:11:58.778Z,2.70
2019-04-27T05:14:28.872Z,2.93
2019-04-27T05:16:59.195Z,1.70
2019-04-27T05:19:28.875Z,1.83
2019-04-27T05:21:59.297Z,2.00
2019-04-27T05:24:29.265Z,2.00
2019-04-27T05:26:59.043Z,3.20
2019-04-27T05:29:29.314Z,2.40
2019-04-27T05:31:59.662Z,2.53
2019-04-27T05:34:29.400Z,5.20
2019-04-27T05:37:00.729Z,2.80
2019-04-27T05:39:30.037Z,1.20
2019-04-27T05:41:59.773Z,2.40
2019-04-27T05:44:49.901Z,2.53
2019-04-27T05:47:20.268Z,1.70
2019-04-27T05:49:49.276Z,3.03
2019-04-27T05:52:29.051Z,4.57
2019-04-27T05:54:58.983Z,3.97
2019-04-27T05:57:30.814Z,3.23
2019-04-27T06:00:01.880Z,1.73
2019-04-27T06:02:30.356Z,3.20
2019-04-27T06:05:00.110Z,1.63
2019-04-27T06:07:29.682Z,3.57
2019-04-27T06:09:59.759Z,1.70
2019-04-27T06:12:29.678Z,2.33
2019-04-27T06:14:59.891Z,2.63
2019-04-27T06:17:30.009Z,3.53
2019-04-27T06:19:59.649Z,3.83
2019-04-27T06:22:29.279Z,2.30
2019-04-27T06:25:00.203Z,4.57
2019-04-27T06:27:30.691Z,1.73
2019-04-27T06:29:59.639Z,2.80
2019-04-27T06:32:29.628Z,3.00
2019-04-27T06:34:59.105Z,6.40
2019-04-27T06:37:29.466Z,4.13
2019-04-27T06:39:59.657Z,3.60
2019-04-27T06:42:29.657Z,2.73
2019-04-27T06:44:59.928Z,2.93
2019-04-27T06:47:29.590Z,3.13
2019-04-27T06:49:59.453Z,2.33
2019-04-27T06:52:29.133Z,4.30
2019-04-27T06:54:58.194Z,4.27
2019-04-27T06:57:26.880Z,3.10
2019-04-27T06:59:55.601Z,2.17
2019-04-27T07:02:24.268Z,3.77
2019-04-27T07:04:52.963Z,3.60
2019-04-27T07:07:21.656Z,2.30
2019-04-27T07:09:50.326Z,2.97
2019-04-27T07:12:19.219Z,2.60
2019-04-27T07:14:52.968Z,3.10
2019-04-27T07:17:19.126Z,4.10
2019-04-27T07:19:49.649Z,3.23
2019-04-27T07:22:20.094Z,3.00
2019-04-27T07:24:49.145Z,3.87
2019-04-27T07:27:19.103Z,4.00
2019-04-27T07:29:49.495Z,3.67
2019-04-27T07:32:19.292Z,2.80
2019-04-27T07:34:49.763Z,4.80
2019-04-27T07:37:19.601Z,3.93
2019-04-27T07:39:49.187Z,4.20
2019-04-27T07:42:20.787Z,3.50
2019-04-27T07:44:54.358Z,7.40
2019-04-27T07:47:26.982Z,5.37
2019-04-27T07:49:55.850Z,4.90
2019-04-27T07:52:24.547Z,4.80
2019-04-27T07:54:53.430Z,9.87
2019-04-27T07:57:22.172Z,4.43
2019-04-27T07:59:50.867Z,6.47
2019-04-27T08:02:19.576Z,6.47
2019-04-27T08:04:50.328Z,4.97
2019-04-27T08:07:19.628Z,5.73
2019-04-27T08:09:49.581Z,4.13
2019-04-27T08:12:20.736Z,4.33
2019-04-27T08:14:49.833Z,6.40
2019-04-27T08:17:19.122Z,4.90
2019-04-27T08:19:49.592Z,9.40
2019-04-27T08:22:19.337Z,3.77
2019-04-27T08:24:49.622Z,4.43
2019-04-27T08:27:20.379Z,10.23
2019-04-27T08:30:09.476Z,3.00
2019-04-27T08:32:41.546Z,3.53
2019-04-27T08:35:10.767Z,3.33
2019-04-27T08:37:39.448Z,4.10
2019-04-27T08:40:09.330Z,6.17
2019-04-27T08:42:39.099Z,5.40
2019-04-27T08:45:09.413Z,3.90
2019-04-27T08:47:39.437Z,6.20
2019-04-27T08:50:09.398Z,4.20
2019-04-27T08:52:41.623Z,3.60
2019-04-27T08:55:09.857Z,3.57
2019-04-27T08:57:38.889Z,2.97
2019-04-27T09:00:09.455Z,3.93
2019-04-27T09:02:44.020Z,5.57
2019-04-27T09:05:09.620Z,3.90
2019-04-27T09:07:49.679Z,6.83
2019-04-27T09:10:35.075Z,3.40
2019-04-27T09:13:08.857Z,6.37
2019-04-27T09:15:42.381Z,3.20
2019-04-27T09:18:12.670Z,5.30
2019-04-27T09:20:42.991Z,7.13
2019-04-27T09:23:11.908Z,4.50
2019-04-27T09:25:40.626Z,3.90
2019-04-27T09:28:09.313Z,4.00
2019-04-27T09:30:39.321Z,3.87
2019-04-27T09:33:08.264Z,3.73
2019-04-27T09:35:37.765Z,6.83
2019-04-27T09:38:07.081Z,5.00
2019-04-27T09:40:36.202Z,4.00
2019-04-27T09:43:04.922Z,4.47
2019-04-27T09:45:33.599Z,4.30
2019-04-27T09:48:02.797Z,3.90
2019-04-27T09:50:31.480Z,3.10
2019-04-27T09:53:00.180Z,4.03
2019-04-27T09:55:28.850Z,4.07
2019-04-27T09:57:57.564Z,4.40
2019-04-27T10:00:27.854Z,4.13
2019-04-27T10:02:56.646Z,3.70
2019-04-27T10:05:26.493Z,3.80
2019-04-27T10:07:56.767Z,4.30
2019-04-27T10:10:26.747Z,4.23
2019-04-27T10:12:56.821Z,4.60
2019-04-27T10:15:26.607Z,3.33
2019-04-27T10:17:57.508Z,4.23
2019-04-27T10:20:25.963Z,5.03
2019-04-27T10:22:56.271Z,3.90
2019-04-27T10:25:26.844Z,4.87
2019-04-27T10:27:58.128Z,4.63
2019-04-27T10:30:27.434Z,3.63
2019-04-27T10:32:56.600Z,3.03
2019-04-27T10:35:26.029Z,5.27
2019-04-27T10:37:54.863Z,5.50
2019-04-27T10:40:23.644Z,2.80
2019-04-27T10:42:52.344Z,4.10
2019-04-27T10:45:21.054Z,3.60
2019-04-27T10:47:49.940Z,5.83
2019-04-27T10:50:19.323Z,3.20
2019-04-27T10:52:53.611Z,6.47
2019-04-27T10:55:18.676Z,8.40
2019-04-27T10:57:47.412Z,6.70
2019-04-27T11:00:18.376Z,3.93
2019-04-27T11:02:47.039Z,3.73
2019-04-27T11:05:20.744Z,5.03
2019-04-27T11:07:50.004Z,3.13
2019-04-27T11:10:18.739Z,5.43
2019-04-27T11:12:47.469Z,3.83
2019-04-27T11:15:16.847Z,5.33
2019-04-27T11:17:47.513Z,3.93
2019-04-27T11:20:16.360Z,3.77
2019-04-27T11:22:46.508Z,3.23
2019-04-27T11:25:16.432Z,4.20
2019-04-27T11:27:45.385Z,4.07
2019-04-27T11:30:15.931Z,4.17
2019-04-27T11:32:44.655Z,5.83
2019-04-27T11:35:21.162Z,7.10
2019-04-27T11:37:51.446Z,3.70
2019-04-27T11:40:22.101Z,4.43
2019-04-27T11:42:50.811Z,3.17
2019-04-27T11:45:19.968Z,3.43
2019-04-27T11:47:48.771Z,3.93
2019-04-27T11:50:17.844Z,5.73
2019-04-27T11:52:46.930Z,5.63
2019-04-27T11:55:17.356Z,4.20
2019-04-27T11:57:46.994Z,6.93
2019-04-27T12:00:19.490Z,6.20
2019-04-27T12:02:48.151Z,6.40
2019-04-27T12:05:18.149Z,7.33
2019-04-27T12:07:47.837Z,4.73
2019-04-27T12:10:17.191Z,4.47
2019-04-27T12:12:46.331Z,3.97
2019-04-27T12:15:17.039Z,3.07
2019-04-27T12:17:46.163Z,4.10
2019-04-27T12:20:17.519Z,7.60
2019-04-27T12:22:46.008Z,9.63
2019-04-27T12:25:15.336Z,5.67
2019-04-27T12:27:57.333Z,4.57
2019-04-27T12:30:44.173Z,5.60
2019-04-27T12:33:12.846Z,4.53
2019-04-27T12:35:41.549Z,3.90
2019-04-27T12:38:10.366Z,6.13
2019-04-27T12:40:39.074Z,7.40
2019-04-27T12:43:08.170Z,4.93
2019-04-27T12:45:39.890Z,6.30
2019-04-27T12:48:07.297Z,4.03
2019-04-27T12:50:36.216Z,7.23
2019-04-27T12:53:09.248Z,4.37
2019-04-27T12:55:46.432Z,9.40
2019-04-27T12:58:33.326Z,8.00
2019-04-27T13:01:03.567Z,7.30
2019-04-27T13:03:32.355Z,10.00
2019-04-27T13:06:01.051Z,3.57
2019-04-27T13:08:29.735Z,5.00
2019-04-27T13:10:58.411Z,3.87
2019-04-27T13:13:27.139Z,5.83
2019-04-27T13:15:56.445Z,6.90
2019-04-27T13:18:25.777Z,8.00
2019-04-27T13:20:55.045Z,8.00
2019-04-27T13:23:23.913Z,7.03
2019-04-27T13:25:52.793Z,5.33
2019-04-27T13:28:21.509Z,4.20
2019-04-27T13:30:50.235Z,1.93
2019-04-27T13:33:18.928Z,3.40
2019-04-27T13:35:47.696Z,2.00
2019-04-27T13:38:18.110Z,5.27
2019-04-27T13:40:48.638Z,2.73
2019-04-27T13:43:21.366Z,3.53
2019-04-27T13:45:54.442Z,3.57
2019-04-27T13:48:33.571Z,1.50
2019-04-27T13:51:06.694Z,2.90
2019-04-27T13:53:36.795Z,3.43
2019-04-27T13:56:17.677Z,4.00
2019-04-27T13:58:46.550Z,5.57
2019-04-27T14:01:15.222Z,7.37
2019-04-27T14:03:45.714Z,1.93
2019-04-27T14:06:15.241Z,6.10
2019-04-27T14:08:44.019Z,1.83
2019-04-27T14:11:12.770Z,3.53
2019-04-27T14:13:41.475Z,6.00
2019-04-27T14:16:10.172Z,4.23
2019-04-27T14:18:38.879Z,9.17
2019-04-27T14:21:09.311Z,4.00
2019-04-27T14:23:38.677Z,3.77
2019-04-27T14:26:08.838Z,2.83
2019-04-27T14:28:37.867Z,6.10
2019-04-27T14:31:06.539Z,3.20
2019-04-27T14:33:35.262Z,3.33
2019-04-27T14:36:04.044Z,3.00
2019-04-27T14:38:32.967Z,3.20
2019-04-27T14:41:01.632Z,11.30
2019-04-27T14:43:30.337Z,7.03
2019-04-27T14:45:59.014Z,6.57
2019-04-27T14:48:29.561Z,3.13
2019-04-27T14:50:59.087Z,6.50
2019-04-27T14:53:28.307Z,6.67
2019-04-27T14:55:58.440Z,6.00
2019-04-27T14:58:28.372Z,4.87
2019-04-27T15:00:58.559Z,3.23
2019-04-27T15:03:27.610Z,3.30
2019-04-27T15:05:56.370Z,5.43
2019-04-27T15:08:25.584Z,4.37
2019-04-27T15:10:54.658Z,6.60
2019-04-27T15:13:23.394Z,3.77
2019-04-27T15:15:52.134Z,4.63
2019-04-27T15:18:22.054Z,3.33
2019-04-27T15:20:51.747Z,3.07
2019-04-27T15:23:20.938Z,4.40
2019-04-27T15:25:50.071Z,3.37
2019-04-27T15:28:20.496Z,5.20
2019-04-27T15:30:53.518Z,2.63
2019-04-27T15:33:40.183Z,1.90
2019-04-27T15:36:14.554Z,1.03
2019-04-27T15:38:53.674Z,2.67
2019-04-27T15:41:30.443Z,1.93
2019-04-27T15:43:59.609Z,1.30
2019-04-27T15:46:27.860Z,1.80
2019-04-27T15:48:58.849Z,1.83
2019-04-27T15:51:28.324Z,1.33
2019-04-27T15:53:58.752Z,2.30
2019-04-27T15:56:30.429Z,4.07
2019-04-27T15:58:59.961Z,2.53
2019-04-27T16:01:29.700Z,1.93
2019-04-27T16:04:02.461Z,3.80
2019-04-27T16:06:29.396Z,4.87
2019-04-27T16:08:59.056Z,3.50
2019-04-27T16:11:27.849Z,5.97
2019-04-27T16:13:56.552Z,6.53
2019-04-27T16:16:29.120Z,3.03
2019-04-27T16:18:55.638Z,2.07
2019-04-27T16:21:24.309Z,4.03
2019-04-27T16:23:52.983Z,5.10
2019-04-27T16:26:21.817Z,3.13
2019-04-27T16:28:53.490Z,4.33
2019-04-27T16:31:24.899Z,3.53
2019-04-27T16:33:53.971Z,3.17
2019-04-27T16:36:22.669Z,2.50
2019-04-27T16:38:52.936Z,3.63
2019-04-27T16:41:21.803Z,1.20
2019-04-27T16:43:50.519Z,3.73
2019-04-27T16:46:21.349Z,2.90
2019-04-27T16:48:49.593Z,4.73
2019-04-27T16:51:18.561Z,5.93
2019-04-27T16:53:47.535Z,2.73
2019-04-27T16:56:20.115Z,2.90
2019-04-27T16:58:49.078Z,3.93
2019-04-27T17:01:18.796Z,1.37
2019-04-27T17:03:48.540Z,1.40
2019-04-27T17:06:21.084Z,3.63
2019-04-27T17:08:49.649Z,4.67
2019-04-27T17:11:19.582Z,3.17
2019-04-27T17:13:52.123Z,5.23
2019-04-27T17:16:24.656Z,4.77
2019-04-27T17:18:57.748Z,5.40
2019-04-27T17:21:28.811Z,2.40
2019-04-27T17:24:02.938Z,3.50
2019-04-27T17:26:29.232Z,6.10
2019-04-27T17:29:02.678Z,6.33
2019-04-27T17:31:33.109Z,4.30
2019-04-27T17:34:02.285Z,8.37
2019-04-27T17:36:30.967Z,7.17
2019-04-27T17:38:59.618Z,3.63
2019-04-27T17:41:28.472Z,5.83
2019-04-27T17:43:59.086Z,4.20
2019-04-27T17:46:28.194Z,3.40
2019-04-27T17:49:00.252Z,5.30
2019-04-27T17:51:30.954Z,4.60
2019-04-27T17:54:02.914Z,3.87
2019-04-27T17:56:36.009Z,5.73
2019-04-27T17:59:00.540Z,5.40
2019-04-27T18:01:31.852Z,4.63
2019-04-27T18:04:02.952Z,4.13
2019-04-27T18:06:30.056Z,6.60
2019-04-27T18:09:00.782Z,3.57
2019-04-27T18:11:32.975Z,6.87
2019-04-27T18:14:00.297Z,9.37
2019-04-27T18:16:34.005Z,5.77
2019-04-27T18:19:14.059Z,7.00
2019-04-27T18:21:44.349Z,4.90
2019-04-27T18:24:20.513Z,6.10
2019-04-27T18:27:00.566Z,4.67
2019-04-27T18:29:29.355Z,3.63
2019-04-27T18:31:54.923Z,4.60
2019-04-27T18:34:23.583Z,3.90
2019-04-27T18:36:52.298Z,7.70
2019-04-27T18:39:20.999Z,10.10
2019-04-27T18:41:54.107Z,4.33
2019-04-27T18:44:23.875Z,5.03
2019-04-27T18:46:53.756Z,7.35
2019-04-27T18:49:38.710Z,7.13
2019-04-27T18:52:09.295Z,4.67
2019-04-27T18:54:41.978Z,3.57
2019-04-27T18:57:10.841Z,3.43
2019-04-27T18:59:38.894Z,3.43
2019-04-27T19:02:08.449Z,3.63
2019-04-27T19:04:37.482Z,3.27
2019-04-27T19:07:06.266Z,5.43
2019-04-27T19:09:34.975Z,5.27
2019-04-27T19:12:03.854Z,4.40
2019-04-27T19:14:32.547Z,4.00
2019-04-27T19:17:01.232Z,6.40
2019-04-27T19:19:29.956Z,3.27
2019-04-27T19:21:59.044Z,3.73
2019-04-27T19:24:28.279Z,5.28
2019-04-27T19:26:58.870Z,2.87
2019-04-27T19:29:29.277Z,4.10
2019-04-27T19:31:59.920Z,3.87
2019-04-27T19:34:28.818Z,5.77
2019-04-27T19:36:59.054Z,5.90
2019-04-27T19:39:28.617Z,8.90
2019-04-27T19:42:01.437Z,3.80
2019-04-27T19:44:29.162Z,5.23
2019-04-27T19:47:00.237Z,5.23
2019-04-27T19:49:31.446Z,5.20
2019-04-27T19:51:59.457Z,6.30
2019-04-27T19:54:30.141Z,11.47
2019-04-27T19:56:59.573Z,5.10
2019-04-27T19:59:38.866Z,9.83
2019-04-27T20:02:09.356Z,7.03
2019-04-27T20:04:38.644Z,7.10
2019-04-27T20:07:10.392Z,8.50
2019-04-27T20:09:45.472Z,6.63
2019-04-27T20:12:14.129Z,12.47
2019-04-27T20:14:57.869Z,11.00
2019-04-27T20:17:31.616Z,7.03
2019-04-27T20:20:00.574Z,7.23
2019-04-27T20:22:29.455Z,9.53
2019-04-27T20:24:58.263Z,7.67
2019-04-27T20:27:27.071Z,9.60
2019-04-27T20:29:55.804Z,6.77
2019-04-27T20:32:24.508Z,10.83
2019-04-27T20:34:53.215Z,10.43
2019-04-27T20:37:21.898Z,9.80
2019-04-27T20:39:51.407Z,5.43
2019-04-27T20:42:21.166Z,10.67
2019-04-27T20:44:51.611Z,6.63
2019-04-27T20:47:20.886Z,8.03
2019-04-27T20:49:50.795Z,6.53
2019-04-27T20:52:26.899Z,11.00
2019-04-27T20:54:55.835Z,5.00
2019-04-27T20:57:24.532Z,13.20
2019-04-27T20:59:53.263Z,6.47
2019-04-27T21:02:41.719Z,9.63
2019-04-27T21:05:17.671Z,9.40
2019-04-27T21:07:51.264Z,7.77
2019-04-27T21:10:21.188Z,10.23
2019-04-27T21:12:51.743Z,11.30
2019-04-27T21:15:21.395Z,10.87
2019-04-27T21:17:51.198Z,9.40
2019-04-27T21:20:21.930Z,11.80
2019-04-27T21:22:53.212Z,6.47
2019-04-27T21:25:21.063Z,13.73
2019-04-27T21:27:51.305Z,12.70
2019-04-27T21:30:21.391Z,9.63
2019-04-27T21:32:51.167Z,11.20
2019-04-27T21:35:20.973Z,10.83
2019-04-27T21:37:51.192Z,9.17
2019-04-27T21:40:21.703Z,13.50
2019-04-27T21:42:51.244Z,8.67
2019-04-27T21:45:21.832Z,7.53
2019-04-27T21:47:51.943Z,8.73
2019-04-27T21:50:22.992Z,12.00
2019-04-27T21:52:55.466Z,10.07
2019-04-27T21:55:25.743Z,17.03
2019-04-27T21:57:54.885Z,14.13
2019-04-27T22:00:34.373Z,8.10
2019-04-27T22:03:03.072Z,8.90
2019-04-27T22:05:31.743Z,14.00
2019-04-27T22:08:00.862Z,6.63
2019-04-27T22:10:31.149Z,8.53
2019-04-27T22:13:01.461Z,8.73
2019-04-27T22:15:31.415Z,13.07
2019-04-27T22:18:00.725Z,13.37
2019-04-27T22:20:32.480Z,8.43
2019-04-27T22:23:14.788Z,7.50
2019-04-27T22:25:43.454Z,9.87
2019-04-27T22:28:12.343Z,8.70
2019-04-27T22:30:41.038Z,9.37
2019-04-27T22:33:11.285Z,14.20
2019-04-27T22:35:41.423Z,6.53
2019-04-27T22:38:11.927Z,6.90
2019-04-27T22:40:45.346Z,7.40
2019-04-27T22:43:34.008Z,7.73
2019-04-27T22:46:03.742Z,8.97
2019-04-27T22:48:33.018Z,7.47
2019-04-27T22:51:01.881Z,13.50
2019-04-27T22:53:32.514Z,12.73
2019-04-27T22:56:17.650Z,9.80
2019-04-27T22:58:58.492Z,11.47
2019-04-27T23:01:22.594Z,7.40
2019-04-27T23:03:55.868Z,9.00
2019-04-27T23:06:24.577Z,11.60
2019-04-27T23:08:53.277Z,14.37
2019-04-27T23:11:21.947Z,9.73
2019-04-27T23:13:52.456Z,10.53
2019-04-27T23:16:22.654Z,9.60
2019-04-27T23:18:51.592Z,10.03
2019-04-27T23:21:20.855Z,11.50
2019-04-27T23:23:51.607Z,12.13
2019-04-27T23:26:21.117Z,7.87
2019-04-27T23:28:51.380Z,8.97
2019-04-27T23:31:31.924Z,14.00
2019-04-27T23:34:01.916Z,13.73
2019-04-27T23:36:31.716Z,14.87
2019-04-27T23:39:01.013Z,10.70
2019-04-27T23:41:29.891Z,8.50
2019-04-27T23:44:00.178Z,8.43
2019-04-27T23:46:28.911Z,8.50
2019-04-27T23:48:57.649Z,8.20
2019-04-27T23:51:27.919Z,6.40
2019-04-27T23:53:56.644Z,9.47
2019-04-27T23:56:25.346Z,11.50
2019-04-27T23:58:54.029Z,6.47
